createdAt,value
2023-05-21T00:00:42.944Z,7.88
2023-05-21T00:03:14.014Z,7.85
2023-05-21T00:05:42.868Z,8.45
2023-05-21T00:08:12.884Z,7.82
2023-05-21T00:10:41.039Z,7.90
2023-05-21T00:13:10.500Z,7.57
2023-05-21T00:15:38.866Z,8.20
2023-05-21T00:18:07.215Z,7.32
2023-05-21T00:20:35.646Z,7.43
2023-05-21T00:23:04.169Z,7.77
2023-05-21T00:25:33.676Z,6.87
2023-05-21T00:28:02.061Z,7.40
2023-05-21T00:30:30.077Z,7.18
2023-05-21T00:33:02.952Z,8.00
2023-05-21T00:35:31.254Z,7.22
2023-05-21T00:38:00.380Z,7.75
2023-05-21T00:40:28.411Z,7.90
2023-05-21T00:42:58.133Z,7.43
2023-05-21T00:45:26.483Z,7.07
2023-05-21T00:47:55.644Z,6.93
2023-05-21T00:50:24.362Z,7.03
2023-05-21T00:52:53.341Z,7.30
2023-05-21T00:55:21.747Z,8.27
2023-05-21T00:57:50.576Z,6.97
2023-05-21T01:00:20.853Z,7.07
2023-05-21T01:02:50.016Z,7.47
2023-05-21T01:05:18.489Z,7.60
2023-05-21T01:07:48.379Z,7.10
2023-05-21T01:10:16.909Z,6.97
2023-05-21T01:12:46.886Z,7.53
2023-05-21T01:15:15.587Z,8.03
2023-05-21T01:17:46.511Z,7.53
2023-05-21T01:20:17.979Z,7.87
2023-05-21T01:22:53.255Z,8.37
2023-05-21T01:25:21.652Z,8.53
2023-05-21T01:27:49.995Z,7.47
2023-05-21T01:30:19.261Z,8.00
2023-05-21T01:32:56.274Z,7.57
2023-05-21T01:35:28.934Z,8.23
2023-05-21T01:38:05.756Z,7.70
2023-05-21T01:40:39.324Z,7.63
2023-05-21T01:43:09.351Z,8.03
2023-05-21T01:45:40.101Z,8.20
2023-05-21T01:48:10.230Z,7.77
2023-05-21T01:50:40.518Z,8.53
2023-05-21T01:53:09.940Z,8.60
2023-05-21T01:55:41.841Z,7.97
2023-05-21T01:58:10.593Z,7.73
2023-05-21T02:00:39.963Z,7.80
2023-05-21T02:03:08.741Z,8.17
2023-05-21T02:05:37.808Z,7.60
2023-05-21T02:08:08.412Z,8.23
2023-05-21T02:10:38.293Z,8.30
2023-05-21T02:13:06.765Z,8.33
2023-05-21T02:15:35.668Z,7.60
2023-05-21T02:18:04.680Z,8.20
2023-05-21T02:20:33.133Z,8.07
2023-05-21T02:23:01.528Z,8.27
2023-05-21T02:25:30.017Z,8.63
2023-05-21T02:27:59.554Z,9.13
2023-05-21T02:30:28.092Z,8.83
2023-05-21T02:32:58.948Z,8.90
2023-05-21T02:35:27.343Z,8.77
2023-05-21T02:37:59.102Z,8.40
2023-05-21T02:40:27.523Z,8.87
2023-05-21T02:42:55.593Z,7.53
2023-05-21T02:45:25.166Z,7.80
2023-05-21T02:47:53.521Z,8.30
2023-05-21T02:50:22.793Z,8.90
2023-05-21T02:52:52.287Z,8.50
2023-05-21T02:55:20.808Z,8.83
2023-05-21T02:57:49.608Z,9.30
2023-05-21T03:00:18.192Z,8.60
2023-05-21T03:02:47.608Z,8.27
2023-05-21T03:05:16.001Z,8.87
2023-05-21T03:07:44.367Z,8.60
2023-05-21T03:10:12.809Z,9.03
2023-05-21T03:12:41.219Z,9.43
2023-05-21T03:15:10.838Z,9.03
2023-05-21T03:17:39.457Z,9.10
2023-05-21T03:20:16.143Z,10.00
2023-05-21T03:22:44.725Z,8.20
2023-05-21T03:25:13.516Z,8.93
2023-05-21T03:27:41.869Z,8.90
2023-05-21T03:30:10.674Z,8.40
2023-05-21T03:32:41.401Z,8.73
2023-05-21T03:35:11.351Z,7.77
2023-05-21T03:37:39.760Z,8.33
2023-05-21T03:40:09.078Z,8.97
2023-05-21T03:42:37.421Z,8.57
2023-05-21T03:45:05.953Z,8.93
2023-05-21T03:47:35.953Z,8.63
2023-05-21T03:50:05.669Z,8.97
2023-05-21T03:52:35.137Z,9.30
2023-05-21T03:55:03.516Z,8.77
2023-05-21T03:57:31.951Z,8.60
2023-05-21T04:00:00.700Z,9.27
2023-05-21T04:02:29.304Z,9.00
2023-05-21T04:04:57.534Z,9.17
2023-05-21T04:07:27.128Z,8.50
2023-05-21T04:09:56.592Z,8.77
2023-05-21T04:12:24.974Z,8.53
2023-05-21T04:14:53.335Z,8.10
2023-05-21T04:17:21.922Z,8.13
2023-05-21T04:19:50.314Z,8.37
2023-05-21T04:22:18.662Z,8.83
2023-05-21T04:24:48.822Z,8.97
2023-05-21T04:27:18.257Z,8.63
2023-05-21T04:29:47.320Z,8.97
2023-05-21T04:32:18.052Z,9.47
2023-05-21T04:34:46.419Z,9.77
2023-05-21T04:37:14.719Z,8.87
2023-05-21T04:39:43.069Z,8.63
2023-05-21T04:42:11.828Z,9.17
2023-05-21T04:44:41.394Z,9.23
2023-05-21T04:47:10.308Z,8.83
2023-05-21T04:49:38.461Z,10.17
2023-05-21T04:52:08.327Z,10.10
2023-05-21T04:54:39.038Z,10.30
2023-05-21T04:57:07.710Z,10.73
2023-05-21T04:59:36.328Z,9.50
2023-05-21T05:02:05.970Z,10.23
2023-05-21T05:04:34.023Z,11.03
2023-05-21T05:07:02.762Z,10.43
2023-05-21T05:09:31.757Z,11.07
2023-05-21T05:11:59.818Z,10.53
2023-05-21T05:14:28.231Z,9.90
2023-05-21T05:17:00.834Z,10.37
2023-05-21T05:19:31.905Z,10.10
2023-05-21T05:22:00.486Z,10.83
2023-05-21T05:24:28.839Z,11.23
2023-05-21T05:26:57.181Z,11.20
2023-05-21T05:29:25.589Z,11.20
2023-05-21T05:31:53.604Z,11.33
2023-05-21T05:34:21.937Z,11.80
2023-05-21T05:36:51.468Z,12.07
2023-05-21T05:39:19.845Z,11.70
2023-05-21T05:41:48.262Z,11.43
2023-05-21T05:44:16.389Z,12.40
2023-05-21T05:46:44.564Z,13.60
2023-05-21T05:49:13.706Z,12.33
2023-05-21T05:51:42.241Z,13.90
2023-05-21T05:54:11.722Z,12.53
2023-05-21T05:56:40.089Z,13.60
2023-05-21T05:59:08.186Z,12.60
2023-05-21T06:01:36.289Z,14.20
2023-05-21T06:04:04.668Z,12.80
2023-05-21T06:06:34.740Z,14.13
2023-05-21T06:09:02.823Z,13.00
2023-05-21T06:11:32.738Z,12.77
2023-05-21T06:14:02.115Z,13.67
2023-05-21T06:16:31.496Z,11.85
2023-05-21T06:18:59.787Z,12.47
2023-05-21T06:21:28.180Z,13.57
2023-05-21T06:23:56.406Z,11.55
2023-05-21T06:26:25.012Z,13.93
2023-05-21T06:28:54.474Z,11.67
2023-05-21T06:31:22.856Z,11.90
2023-05-21T06:33:51.519Z,13.03
2023-05-21T06:36:19.722Z,12.90
2023-05-21T06:38:48.110Z,13.13
2023-05-21T06:41:16.468Z,13.63
2023-05-21T06:43:44.500Z,11.95
2023-05-21T06:46:13.924Z,13.63
2023-05-21T06:48:42.097Z,12.85
2023-05-21T06:51:10.438Z,12.20
2023-05-21T06:53:38.781Z,11.95
2023-05-21T06:56:07.248Z,12.65
2023-05-21T06:58:35.661Z,12.90
2023-05-21T07:01:04.136Z,12.20
2023-05-21T07:03:33.665Z,11.90
2023-05-21T07:06:01.908Z,12.95
2023-05-21T07:08:29.969Z,12.20
2023-05-21T07:10:58.394Z,12.48
2023-05-21T07:13:26.453Z,12.85
2023-05-21T07:15:54.917Z,11.43
2023-05-21T07:18:23.266Z,12.20
2023-05-21T07:20:52.661Z,13.00
2023-05-21T07:23:21.388Z,11.40
2023-05-21T07:25:49.697Z,12.07
2023-05-21T07:28:18.059Z,13.00
2023-05-21T07:30:46.156Z,12.52
2023-05-21T07:33:14.231Z,11.40
2023-05-21T07:35:42.541Z,12.05
2023-05-21T07:38:12.384Z,12.65
2023-05-21T07:40:40.606Z,12.23
2023-05-21T07:43:08.643Z,11.98
2023-05-21T07:45:36.888Z,12.95
2023-05-21T07:48:05.611Z,13.23
2023-05-21T07:50:34.005Z,12.90
2023-05-21T07:53:02.317Z,13.15
2023-05-21T07:55:31.996Z,13.07
2023-05-21T07:58:01.697Z,13.30
2023-05-21T08:00:30.306Z,12.63
2023-05-21T08:02:58.763Z,13.23
2023-05-21T08:05:27.274Z,12.68
2023-05-21T08:07:55.605Z,12.70
2023-05-21T08:10:24.553Z,12.75
2023-05-21T08:12:53.956Z,12.40
2023-05-21T08:15:22.445Z,13.50
2023-05-21T08:17:50.480Z,12.85
2023-05-21T08:20:20.522Z,13.52
2023-05-21T08:22:49.911Z,13.60
2023-05-21T08:25:18.239Z,12.75
2023-05-21T08:27:46.390Z,13.63
2023-05-21T08:30:15.980Z,14.50
2023-05-21T08:32:44.414Z,14.05
2023-05-21T08:35:12.814Z,14.07
2023-05-21T08:37:41.023Z,15.18
2023-05-21T08:40:11.433Z,13.98
2023-05-21T08:42:44.553Z,14.55
2023-05-21T08:45:14.555Z,13.07
2023-05-21T08:47:45.014Z,14.35
2023-05-21T08:50:14.788Z,14.55
2023-05-21T08:52:43.322Z,13.57
2023-05-21T08:55:11.803Z,15.32
2023-05-21T08:57:44.094Z,15.65
2023-05-21T09:00:14.212Z,16.52
2023-05-21T09:02:44.639Z,17.42
2023-05-21T09:05:14.277Z,16.48
2023-05-21T09:07:49.299Z,17.23
2023-05-21T09:10:22.594Z,17.85
2023-05-21T09:12:50.944Z,16.40
2023-05-21T09:15:19.476Z,16.70
2023-05-21T09:17:49.630Z,17.45
2023-05-21T09:20:18.218Z,18.02
2023-05-21T09:22:47.438Z,17.45
2023-05-21T09:25:18.168Z,16.20
2023-05-21T09:27:46.388Z,17.20
2023-05-21T09:30:15.677Z,17.23
2023-05-21T09:32:45.353Z,17.10
2023-05-21T09:35:16.252Z,16.75
2023-05-21T09:37:45.679Z,17.70
2023-05-21T09:40:15.476Z,17.60
2023-05-21T09:42:46.420Z,16.25
2023-05-21T09:45:18.935Z,16.52
2023-05-21T09:47:48.629Z,16.30
2023-05-21T09:50:21.813Z,17.42
2023-05-21T09:52:52.853Z,16.88
2023-05-21T09:55:24.190Z,18.17
2023-05-21T09:57:53.388Z,17.40
2023-05-21T10:00:22.688Z,17.35
2023-05-21T10:02:55.213Z,18.73
2023-05-21T10:05:28.095Z,18.35
2023-05-21T10:08:01.008Z,17.88
2023-05-21T10:10:30.410Z,19.42
2023-05-21T10:13:01.581Z,17.92
2023-05-21T10:15:32.867Z,17.48
2023-05-21T10:18:02.193Z,18.23
2023-05-21T10:20:32.182Z,18.35
2023-05-21T10:23:01.007Z,19.30
2023-05-21T10:25:31.932Z,19.17
2023-05-21T10:28:00.496Z,17.10
2023-05-21T10:30:29.041Z,17.42
2023-05-21T10:32:57.879Z,17.08
2023-05-21T10:35:26.241Z,17.77
2023-05-21T10:37:57.065Z,18.77
2023-05-21T10:40:25.087Z,18.50
2023-05-21T10:43:19.747Z,17.67
2023-05-21T10:46:13.992Z,16.05
2023-05-21T10:48:59.518Z,16.95
2023-05-21T10:51:30.593Z,18.45
2023-05-21T10:54:33.531Z,17.25
2023-05-21T10:57:11.870Z,16.90
2023-05-21T10:59:43.457Z,18.60
2023-05-21T11:02:14.062Z,19.13
2023-05-21T11:04:44.287Z,17.25
2023-05-21T11:07:13.398Z,20.08
2023-05-21T11:09:42.860Z,19.30
2023-05-21T11:12:13.007Z,20.25
2023-05-21T11:14:43.599Z,18.50
2023-05-21T11:17:13.935Z,19.25
2023-05-21T11:19:43.859Z,18.80
2023-05-21T11:22:22.460Z,19.40
2023-05-21T11:24:52.500Z,19.13
2023-05-21T11:27:34.810Z,19.17
2023-05-21T11:30:06.526Z,19.27
2023-05-21T11:32:37.759Z,19.83
2023-05-21T11:35:08.161Z,19.95
2023-05-21T11:37:40.525Z,20.30
2023-05-21T11:40:21.022Z,19.27
2023-05-21T11:42:54.101Z,20.42
2023-05-21T11:45:23.433Z,21.08
2023-05-21T11:47:53.430Z,22.60
2023-05-21T11:50:21.934Z,21.38
2023-05-21T11:52:51.083Z,22.75
2023-05-21T11:55:26.242Z,20.85
2023-05-21T11:57:55.377Z,21.00
2023-05-21T12:00:23.799Z,21.90
2023-05-21T12:02:53.464Z,22.48
2023-05-21T12:05:23.300Z,21.65
2023-05-21T12:07:51.507Z,21.10
2023-05-21T12:10:24.500Z,22.13
2023-05-21T12:12:56.338Z,20.88
2023-05-21T12:15:27.427Z,22.65
2023-05-21T12:17:56.853Z,21.17
2023-05-21T12:20:28.025Z,21.77
2023-05-21T12:22:57.929Z,21.20
2023-05-21T12:25:27.801Z,22.10
2023-05-21T12:27:58.481Z,21.15
2023-05-21T12:30:27.413Z,20.23
2023-05-21T12:32:58.599Z,22.33
2023-05-21T12:35:26.789Z,21.40
2023-05-21T12:37:54.929Z,21.05
2023-05-21T12:40:23.243Z,23.48
2023-05-21T12:42:52.763Z,19.80
2023-05-21T12:45:22.829Z,20.95
2023-05-21T12:47:56.006Z,21.60
2023-05-21T12:50:24.806Z,19.80
2023-05-21T12:52:56.912Z,22.33
2023-05-21T12:55:26.524Z,20.95
2023-05-21T12:58:05.148Z,22.67
2023-05-21T13:00:34.269Z,21.05
2023-05-21T13:03:04.455Z,23.50
2023-05-21T13:05:32.902Z,22.33
2023-05-21T13:08:01.058Z,20.08
2023-05-21T13:10:29.232Z,22.90
2023-05-21T13:12:57.291Z,22.45
2023-05-21T13:15:26.726Z,21.05
2023-05-21T13:17:56.712Z,22.05
2023-05-21T13:20:27.458Z,24.17
2023-05-21T13:22:55.890Z,22.33
2023-05-21T13:25:28.452Z,23.40
2023-05-21T13:27:57.233Z,23.73
2023-05-21T13:30:26.807Z,22.90
2023-05-21T13:32:55.308Z,24.38
2023-05-21T13:35:23.568Z,21.48
2023-05-21T13:37:52.263Z,21.35
2023-05-21T13:40:20.554Z,22.90
2023-05-21T13:42:50.459Z,21.40
2023-05-21T13:45:20.805Z,22.50
2023-05-21T13:47:50.333Z,23.83
2023-05-21T13:50:18.631Z,23.25
2023-05-21T13:52:47.167Z,20.33
2023-05-21T13:55:16.861Z,22.75
2023-05-21T13:57:45.919Z,21.60
2023-05-21T14:00:15.922Z,20.52
2023-05-21T14:02:44.793Z,21.20
2023-05-21T14:05:14.973Z,20.92
2023-05-21T14:07:43.255Z,23.25
2023-05-21T14:10:12.380Z,22.17
2023-05-21T14:12:40.801Z,23.25
2023-05-21T14:15:09.883Z,21.27
2023-05-21T14:17:40.217Z,20.80
2023-05-21T14:20:09.988Z,22.17
2023-05-21T14:22:39.728Z,21.67
2023-05-21T14:25:08.358Z,22.50
2023-05-21T14:27:37.891Z,23.60
2023-05-21T14:30:06.899Z,23.25
2023-05-21T14:32:35.355Z,22.95
2023-05-21T14:35:03.781Z,23.10
2023-05-21T14:37:31.852Z,22.58
2023-05-21T14:40:01.273Z,23.20
2023-05-21T14:42:29.384Z,26.40
2023-05-21T14:47:26.926Z,22.33
2023-05-21T14:49:55.041Z,25.15
2023-05-21T14:52:23.149Z,22.35
2023-05-21T14:54:51.166Z,24.23
2023-05-21T14:57:20.837Z,24.20
2023-05-21T14:59:49.466Z,23.02
2023-05-21T15:02:17.553Z,23.38
2023-05-21T15:04:45.833Z,22.90
2023-05-21T15:07:13.875Z,23.48
2023-05-21T15:09:42.055Z,23.85
2023-05-21T15:12:10.527Z,23.33
2023-05-21T15:14:41.119Z,21.60
2023-05-21T15:17:09.135Z,23.30
2023-05-21T15:19:37.387Z,21.35
2023-05-21T15:22:05.576Z,21.25
2023-05-21T15:24:33.822Z,22.85
2023-05-21T15:27:02.006Z,19.83
2023-05-21T15:29:30.137Z,21.70
2023-05-21T15:32:01.130Z,24.70
2023-05-21T15:34:29.337Z,22.45
2023-05-21T15:36:57.930Z,20.88
2023-05-21T15:39:26.788Z,22.00
2023-05-21T15:41:56.076Z,20.85
2023-05-21T15:44:26.379Z,23.92
2023-05-21T15:46:54.867Z,23.17
2023-05-21T15:49:24.536Z,22.67
2023-05-21T15:51:52.678Z,21.75
2023-05-21T15:54:20.864Z,23.17
2023-05-21T15:56:48.879Z,22.20
2023-05-21T15:59:17.213Z,25.83
2023-05-21T16:01:45.590Z,24.00
2023-05-21T16:04:15.687Z,22.25
2023-05-21T16:06:45.301Z,22.02
2023-05-21T16:09:13.321Z,19.70
2023-05-21T16:11:41.539Z,21.55
2023-05-21T16:14:09.596Z,21.35
2023-05-21T16:16:37.900Z,21.98
2023-05-21T16:19:06.500Z,19.80
2023-05-21T16:21:34.667Z,22.83
2023-05-21T16:24:04.144Z,22.38
2023-05-21T16:26:32.288Z,23.67
2023-05-21T16:29:02.287Z,24.45
2023-05-21T16:31:30.574Z,20.15
2023-05-21T16:33:58.836Z,19.35
2023-05-21T16:36:26.918Z,23.08
2023-05-21T16:38:55.098Z,22.90
2023-05-21T16:41:24.628Z,22.42
2023-05-21T16:43:54.365Z,22.85
2023-05-21T16:46:22.747Z,24.38
2023-05-21T16:48:50.980Z,25.00
2023-05-21T16:51:19.347Z,22.40
2023-05-21T16:53:47.429Z,22.13
2023-05-21T16:56:15.575Z,22.75
2023-05-21T16:58:44.971Z,23.00
2023-05-21T17:01:13.610Z,24.75
2023-05-21T17:03:43.352Z,22.08
2023-05-21T17:06:11.724Z,23.02
2023-05-21T17:08:39.830Z,22.70
2023-05-21T17:11:08.245Z,22.90
2023-05-21T17:13:36.391Z,24.58
2023-05-21T17:16:06.386Z,23.98
2023-05-21T17:18:34.465Z,24.63
2023-05-21T17:21:02.569Z,25.00
2023-05-21T17:23:30.971Z,22.98
2023-05-21T17:25:58.981Z,24.00
2023-05-21T17:28:27.023Z,23.67
2023-05-21T17:30:55.162Z,22.55
2023-05-21T17:33:25.215Z,22.80
2023-05-21T17:35:53.470Z,22.17
2023-05-21T17:38:21.582Z,23.75
2023-05-21T17:40:50.673Z,25.63
2023-05-21T17:43:20.658Z,25.33
2023-05-21T17:45:48.915Z,23.83
2023-05-21T17:48:17.103Z,24.25
2023-05-21T17:50:46.835Z,23.48
2023-05-21T17:53:14.941Z,25.52
2023-05-21T17:55:43.183Z,22.20
2023-05-21T17:58:11.408Z,24.15
2023-05-21T18:00:39.746Z,23.58
2023-05-21T18:03:08.485Z,22.52
2023-05-21T18:05:36.852Z,24.02
2023-05-21T18:08:07.014Z,23.23
2023-05-21T18:10:35.655Z,24.95
2023-05-21T18:13:03.794Z,24.95
2023-05-21T18:15:33.104Z,24.17
2023-05-21T18:18:01.451Z,24.17
2023-05-21T18:20:30.090Z,23.55
2023-05-21T18:22:58.165Z,23.55
2023-05-21T18:25:27.809Z,24.73
2023-05-21T18:27:55.836Z,23.15
2023-05-21T18:30:24.015Z,24.60
2023-05-21T18:32:52.110Z,24.42
2023-05-21T18:35:20.532Z,24.27
2023-05-21T18:37:49.019Z,22.60
2023-05-21T18:40:17.436Z,22.15
2023-05-21T18:42:47.037Z,23.88
2023-05-21T18:45:16.148Z,17.48
2023-05-21T18:47:44.763Z,13.52
2023-05-21T18:50:14.672Z,13.77
2023-05-21T18:52:43.085Z,12.73
2023-05-21T18:55:11.464Z,15.10
2023-05-21T18:57:41.184Z,13.55
2023-05-21T19:00:11.812Z,12.60
2023-05-21T19:02:40.665Z,12.60
2023-05-21T19:05:09.874Z,12.73
2023-05-21T19:07:38.348Z,12.68
2023-05-21T19:10:07.232Z,13.38
2023-05-21T19:12:36.276Z,13.07
2023-05-21T19:15:05.031Z,13.00
2023-05-21T19:17:35.154Z,13.43
2023-05-21T19:20:05.274Z,12.85
2023-05-21T19:22:33.883Z,13.93
2023-05-21T19:25:02.445Z,12.90
2023-05-21T19:27:31.099Z,13.32
2023-05-21T19:29:59.566Z,14.25
2023-05-21T19:32:28.076Z,14.23
2023-05-21T19:34:58.296Z,13.55
2023-05-21T19:37:26.670Z,14.20
2023-05-21T19:39:54.678Z,15.52
2023-05-21T19:42:23.220Z,15.15
2023-05-21T19:44:51.803Z,15.05
2023-05-21T19:47:20.187Z,14.02
2023-05-21T19:49:48.558Z,15.05
2023-05-21T19:52:18.128Z,16.02
2023-05-21T19:54:46.557Z,16.58
2023-05-21T19:57:14.733Z,15.60
2023-05-21T19:59:43.162Z,17.17
2023-05-21T20:02:15.075Z,17.55
2023-05-21T20:04:43.503Z,17.70
2023-05-21T20:07:11.605Z,19.67
2023-05-21T20:09:41.521Z,19.40
2023-05-21T20:12:10.143Z,18.80
2023-05-21T20:14:38.422Z,19.60
2023-05-21T20:17:07.080Z,19.83
2023-05-21T20:19:37.790Z,21.60
2023-05-21T20:22:06.535Z,22.00
2023-05-21T20:24:35.000Z,21.67
2023-05-21T20:27:04.870Z,21.63
2023-05-21T20:29:33.074Z,20.42
2023-05-21T20:32:01.166Z,20.90
2023-05-21T20:34:29.802Z,22.77
2023-05-21T20:36:58.401Z,22.63
2023-05-21T20:39:28.629Z,22.30
2023-05-21T20:41:58.197Z,18.75
2023-05-21T20:44:28.872Z,20.38
2023-05-21T20:46:57.248Z,23.25
2023-05-21T20:49:25.870Z,20.75
2023-05-21T20:51:54.313Z,21.50
2023-05-21T20:54:23.298Z,22.20
2023-05-21T20:56:54.784Z,22.75
2023-05-21T20:59:23.167Z,22.20
2023-05-21T21:01:52.713Z,21.50
2023-05-21T21:04:22.103Z,21.40
2023-05-21T21:06:50.607Z,21.40
2023-05-21T21:09:18.990Z,20.77
2023-05-21T21:11:47.334Z,21.60
2023-05-21T21:14:15.676Z,18.35
2023-05-21T21:16:43.743Z,21.67
2023-05-21T21:19:13.465Z,21.52
2023-05-21T21:21:41.753Z,20.15
2023-05-21T21:24:09.941Z,21.08
2023-05-21T21:26:38.349Z,21.13
2023-05-21T21:29:06.854Z,20.40
2023-05-21T21:31:35.226Z,20.15
2023-05-21T21:34:03.762Z,20.08
2023-05-21T21:36:33.255Z,19.02
2023-05-21T21:39:02.601Z,19.30
2023-05-21T21:41:30.817Z,20.33
2023-05-21T21:43:59.011Z,20.20
2023-05-21T21:46:27.255Z,21.05
2023-05-21T21:48:55.369Z,20.67
2023-05-21T21:51:23.716Z,21.77
2023-05-21T21:53:53.342Z,20.20
2023-05-21T21:56:22.115Z,21.15
2023-05-21T21:58:50.470Z,22.25
2023-05-21T22:01:19.399Z,21.27
2023-05-21T22:03:47.913Z,21.63
2023-05-21T22:06:16.105Z,21.13
2023-05-21T22:08:44.508Z,20.27
2023-05-21T22:11:14.127Z,22.02
2023-05-21T22:13:42.613Z,21.23
2023-05-21T22:16:11.811Z,20.95
2023-05-21T22:18:41.945Z,20.50
2023-05-21T22:21:11.031Z,22.50
2023-05-21T22:23:39.562Z,24.48
2023-05-21T22:26:07.773Z,22.63
2023-05-21T22:28:37.387Z,22.67
2023-05-21T22:31:05.723Z,22.48
2023-05-21T22:33:33.856Z,23.10
2023-05-21T22:36:02.009Z,23.30
2023-05-21T22:38:30.084Z,22.60
2023-05-21T22:40:58.498Z,21.55
2023-05-21T22:43:28.905Z,22.85
2023-05-21T22:45:58.459Z,22.38
2023-05-21T22:48:26.522Z,24.02
2023-05-21T22:50:54.828Z,24.02
2023-05-21T22:53:23.613Z,22.60
2023-05-21T22:55:52.073Z,23.08
2023-05-21T22:58:20.467Z,22.30
2023-05-21T23:00:48.864Z,20.52
2023-05-21T23:03:18.365Z,21.75
2023-05-21T23:05:46.942Z,20.92
2023-05-21T23:08:15.456Z,20.50
2023-05-21T23:10:44.132Z,22.35
2023-05-21T23:13:13.253Z,22.92
2023-05-21T23:15:43.545Z,22.00
2023-05-21T23:18:12.505Z,23.30
2023-05-21T23:20:42.236Z,21.33
2023-05-21T23:23:10.692Z,21.98
2023-05-21T23:25:39.326Z,24.10
2023-05-21T23:28:07.818Z,23.40
2023-05-21T23:30:36.538Z,20.80
2023-05-21T23:33:05.152Z,24.10
2023-05-21T23:35:33.502Z,23.77
2023-05-21T23:38:03.645Z,22.15
2023-05-21T23:40:32.087Z,21.92
2023-05-21T23:43:00.606Z,22.30
2023-05-21T23:45:28.790Z,22.30
2023-05-21T23:47:57.190Z,21.38
2023-05-21T23:50:26.013Z,21.02
2023-05-21T23:52:54.503Z,19.45
2023-05-21T23:55:24.055Z,18.48
2023-05-21T23:57:52.484Z,18.35
